createdAt,value
2022-11-19T00:02:17.479Z,96771.91
2022-11-19T00:05:21.803Z,96779.19
2022-11-19T00:08:24.497Z,96773.31
2022-11-19T00:11:46.978Z,96786.31
2022-11-19T00:14:49.675Z,96777.06
2022-11-19T00:17:52.400Z,96772.38
2022-11-19T00:20:56.802Z,96782.81
2022-11-19T00:23:59.765Z,96771.91
2022-11-19T00:27:02.434Z,96772.25
2022-11-19T00:30:19.937Z,96777.53
2022-11-19T00:33:29.456Z,96796.75
2022-11-19T00:36:33.517Z,96789.50
2022-11-19T00:39:36.365Z,96791.94
2022-11-19T00:42:39.732Z,96778.59
2022-11-19T00:45:44.490Z,96791.59
2022-11-19T00:48:47.926Z,96801.19
2022-11-19T00:51:51.949Z,96798.38
2022-11-19T00:54:54.637Z,96807.19
2022-11-19T00:57:57.242Z,96811.16
2022-11-19T01:01:00.207Z,96817.59
2022-11-19T01:04:02.881Z,96810.09
2022-11-19T01:07:06.963Z,96808.81
2022-11-19T01:10:10.113Z,96823.53
2022-11-19T01:13:30.871Z,96821.38
2022-11-19T01:16:34.826Z,96826.50
2022-11-19T01:19:37.488Z,96824.38
2022-11-19T01:22:41.572Z,96826.63
2022-11-19T01:25:44.283Z,96833.63
2022-11-19T01:28:47.098Z,96842.91
2022-11-19T01:31:49.755Z,96839.81
2022-11-19T01:34:53.473Z,96848.16
2022-11-19T01:37:57.477Z,96836.19
2022-11-19T01:41:00.407Z,96830.22
2022-11-19T01:44:03.925Z,96833.28
2022-11-19T01:47:06.591Z,96842.84
2022-11-19T01:50:09.420Z,96846.84
2022-11-19T01:53:14.508Z,96830.44
2022-11-19T01:56:18.262Z,96839.31
2022-11-19T01:59:21.334Z,96843.06
2022-11-19T02:02:25.167Z,96851.97
2022-11-19T02:05:28.071Z,96862.03
2022-11-19T02:08:37.538Z,96856.66
2022-11-19T02:12:07.994Z,96853.59
2022-11-19T02:15:18.397Z,96851.97
2022-11-19T02:18:32.769Z,96856.16
2022-11-19T02:21:39.015Z,96858.84
2022-11-19T02:24:48.621Z,96868.44
2022-11-19T02:28:02.321Z,96865.84
2022-11-19T02:31:09.902Z,96859.88
2022-11-19T02:34:15.377Z,96861.03
2022-11-19T02:37:20.114Z,96853.56
2022-11-19T02:40:25.942Z,96856.81
2022-11-19T02:43:30.968Z,96860.53
2022-11-19T02:46:35.039Z,96859.00
2022-11-19T02:49:41.384Z,96850.09
2022-11-19T02:52:45.105Z,96852.81
2022-11-19T02:56:08.737Z,96853.50
2022-11-19T02:59:29.221Z,96846.94
2022-11-19T03:03:07.922Z,96853.28
2022-11-19T03:06:12.172Z,96849.72
2022-11-19T03:09:15.223Z,96845.84
2022-11-19T03:12:22.008Z,96841.34
2022-11-19T03:15:46.924Z,96851.88
2022-11-19T03:18:54.328Z,96851.50
2022-11-19T03:21:58.852Z,96847.78
2022-11-19T03:25:03.123Z,96857.06
2022-11-19T03:28:08.669Z,96856.38
2022-11-19T03:31:12.169Z,96859.13
2022-11-19T03:34:19.875Z,96866.75
2022-11-19T03:37:23.739Z,96863.56
2022-11-19T03:40:27.907Z,96869.66
2022-11-19T03:43:32.519Z,96866.59
2022-11-19T03:46:37.104Z,96872.16
2022-11-19T03:49:43.296Z,96863.09
2022-11-19T03:52:46.027Z,96876.88
2022-11-19T03:55:51.895Z,96876.66
2022-11-19T03:58:55.020Z,96879.16
2022-11-19T04:01:59.411Z,96879.94
2022-11-19T04:05:03.454Z,96882.03
2022-11-19T04:08:06.345Z,96891.56
2022-11-19T04:14:10.650Z,96891.44
2022-11-19T04:17:13.871Z,96896.09
2022-11-19T04:20:18.095Z,96893.56
2022-11-19T04:23:20.768Z,96902.44
2022-11-19T04:26:23.437Z,96908.13
2022-11-19T04:29:26.127Z,96909.63
2022-11-19T04:32:28.805Z,96909.81
2022-11-19T04:35:32.858Z,96914.06
2022-11-19T04:38:35.547Z,96918.06
2022-11-19T04:41:38.259Z,96918.28
2022-11-19T04:44:40.952Z,96918.84
2022-11-19T04:47:43.603Z,96925.47
2022-11-19T04:50:47.612Z,96921.66
2022-11-19T04:53:50.349Z,96919.31
2022-11-19T04:56:53.204Z,96922.19
2022-11-19T04:59:55.868Z,96919.00
2022-11-19T05:02:58.471Z,96922.28
2022-11-19T05:06:02.601Z,96926.09
2022-11-19T05:09:05.301Z,96920.72
2022-11-19T05:12:08.216Z,96923.34
2022-11-19T05:15:11.360Z,96915.31
2022-11-19T05:18:14.403Z,96913.84
2022-11-19T05:21:18.468Z,96912.75
2022-11-19T05:24:21.118Z,96915.50
2022-11-19T05:27:23.932Z,96923.34
2022-11-19T05:30:26.638Z,96917.69
2022-11-19T05:33:33.768Z,96923.03
2022-11-19T05:36:38.636Z,96922.41
2022-11-19T05:39:41.412Z,96926.94
2022-11-19T05:42:44.109Z,96926.84
2022-11-19T05:45:47.131Z,96923.97
2022-11-19T05:48:49.794Z,96923.56
2022-11-19T05:51:53.894Z,96921.38
2022-11-19T05:54:56.648Z,96929.19
2022-11-19T05:57:59.511Z,96917.28
2022-11-19T06:01:02.254Z,96921.16
2022-11-19T06:04:05.029Z,96928.78
2022-11-19T06:07:09.001Z,96924.47
2022-11-19T06:10:11.726Z,96930.44
2022-11-19T06:13:14.427Z,96947.28
2022-11-19T06:16:17.099Z,96947.72
2022-11-19T06:19:20.217Z,96942.13
2022-11-19T06:22:24.499Z,96945.44
2022-11-19T06:25:27.735Z,96955.81
2022-11-19T06:28:30.372Z,96953.97
2022-11-19T06:31:33.090Z,96964.03
2022-11-19T06:34:35.809Z,96964.78
2022-11-19T06:37:39.806Z,96972.50
2022-11-19T06:40:42.507Z,96968.69
2022-11-19T06:43:45.404Z,96966.81
2022-11-19T06:46:48.041Z,96971.56
2022-11-19T06:49:50.717Z,96965.50
2022-11-19T06:52:54.778Z,96973.81
2022-11-19T06:55:57.903Z,96966.59
2022-11-19T06:59:00.562Z,96975.69
2022-11-19T07:02:03.219Z,96966.41
2022-11-19T07:05:06.260Z,96976.72
2022-11-19T07:08:10.314Z,96977.41
2022-11-19T07:11:28.151Z,96967.22
2022-11-19T07:14:30.838Z,96966.81
2022-11-19T07:17:33.804Z,96968.25
2022-11-19T07:20:36.485Z,96969.47
2022-11-19T07:23:40.490Z,96969.66
2022-11-19T07:26:43.170Z,96967.41
2022-11-19T07:29:45.824Z,96984.06
2022-11-19T07:32:48.807Z,96990.63
2022-11-19T07:35:51.468Z,96992.66
2022-11-19T07:38:55.488Z,97001.72
2022-11-19T07:42:15.727Z,96997.91
2022-11-19T07:45:21.166Z,97008.00
2022-11-19T07:48:23.776Z,97006.97
2022-11-19T07:51:26.803Z,97006.41
2022-11-19T07:54:30.848Z,97001.28
2022-11-19T07:57:33.821Z,97007.63
2022-11-19T08:00:37.270Z,97014.31
2022-11-19T08:03:41.948Z,97012.97
2022-11-19T08:06:44.587Z,97007.81
2022-11-19T08:09:48.622Z,97016.03
2022-11-19T08:13:03.198Z,97010.44
2022-11-19T08:16:06.861Z,97013.72
2022-11-19T08:19:09.696Z,97018.66
2022-11-19T08:22:12.778Z,97015.88
2022-11-19T08:25:17.064Z,97009.47
2022-11-19T08:28:19.925Z,97016.75
2022-11-19T08:31:22.616Z,97018.28
2022-11-19T08:34:25.258Z,97021.94
2022-11-19T08:37:27.904Z,97033.38
2022-11-19T08:40:31.935Z,97024.59
2022-11-19T08:43:33.577Z,97020.53
2022-11-19T08:46:36.260Z,97014.91
2022-11-19T08:49:38.945Z,97022.88
2022-11-19T08:52:41.563Z,97018.91
2022-11-19T08:55:51.387Z,97028.28
2022-11-19T08:58:59.836Z,97026.19
2022-11-19T09:02:05.076Z,97039.03
2022-11-19T09:05:13.278Z,97028.66
2022-11-19T09:08:17.140Z,97037.81
2022-11-19T09:11:21.964Z,97035.47
2022-11-19T09:14:24.604Z,97031.84
2022-11-19T09:17:27.291Z,97035.13
2022-11-19T09:20:29.971Z,97037.22
2022-11-19T09:23:32.656Z,97039.06
2022-11-19T09:26:36.818Z,97034.06
2022-11-19T09:29:39.433Z,97039.28
2022-11-19T09:32:42.121Z,97037.19
2022-11-19T09:35:44.781Z,97043.84
2022-11-19T09:38:48.012Z,97046.78
2022-11-19T09:41:54.222Z,97046.97
2022-11-19T09:45:04.547Z,97048.88
2022-11-19T09:48:13.308Z,97054.25
2022-11-19T09:51:17.658Z,97046.44
2022-11-19T09:54:22.562Z,97053.38
2022-11-19T09:57:30.502Z,97046.34
2022-11-19T10:00:33.200Z,97044.34
2022-11-19T10:03:35.868Z,97034.03
2022-11-19T10:06:44.362Z,97034.75
2022-11-19T10:09:53.203Z,97038.03
2022-11-19T10:13:12.958Z,97027.97
2022-11-19T10:16:23.671Z,97041.13
2022-11-19T10:19:35.493Z,97030.56
2022-11-19T10:22:39.791Z,97018.53
2022-11-19T10:25:45.110Z,97015.50
2022-11-19T10:28:54.960Z,97015.72
2022-11-19T10:32:12.600Z,97012.41
2022-11-19T10:35:16.943Z,97004.66
2022-11-19T10:38:22.243Z,97001.16
2022-11-19T10:41:30.998Z,96998.75
2022-11-19T10:44:41.157Z,97002.28
2022-11-19T10:47:48.030Z,97002.78
2022-11-19T10:50:50.856Z,97012.88
2022-11-19T10:53:55.575Z,97011.06
2022-11-19T10:56:59.791Z,97009.31
2022-11-19T11:00:03.906Z,97010.13
2022-11-19T11:03:07.872Z,96999.53
2022-11-19T11:06:12.125Z,97004.69
2022-11-19T11:09:28.487Z,97000.75
2022-11-19T11:12:54.311Z,97001.72
2022-11-19T11:15:58.638Z,97006.84
2022-11-19T11:19:01.523Z,97018.94
2022-11-19T11:22:04.386Z,97018.78
2022-11-19T11:25:14.393Z,97020.84
2022-11-19T11:28:18.016Z,97025.28
2022-11-19T11:31:28.889Z,97017.47
2022-11-19T11:34:33.518Z,97023.97
2022-11-19T11:37:36.201Z,97020.50
2022-11-19T11:40:38.846Z,97015.09
2022-11-19T11:44:01.317Z,97015.41
2022-11-19T11:47:11.324Z,97013.03
2022-11-19T11:50:16.356Z,97013.88
2022-11-19T11:53:28.664Z,97015.13
2022-11-19T11:56:31.435Z,97017.97
2022-11-19T11:59:34.491Z,97005.75
2022-11-19T12:02:38.531Z,97020.16
2022-11-19T12:05:48.919Z,97026.59
2022-11-19T12:08:55.187Z,97023.63
2022-11-19T12:12:01.284Z,97025.50
2022-11-19T12:15:07.354Z,97021.56
2022-11-19T12:18:18.266Z,97023.81
2022-11-19T12:21:29.139Z,97026.59
2022-11-19T12:24:39.506Z,97018.59
2022-11-19T12:27:48.352Z,97019.41
2022-11-19T12:30:56.979Z,97021.31
2022-11-19T12:34:17.331Z,97012.97
2022-11-19T12:37:29.893Z,97018.19
2022-11-19T12:40:41.018Z,97018.13
2022-11-19T12:43:56.764Z,97021.47
2022-11-19T12:47:05.849Z,97031.63
2022-11-19T12:50:19.819Z,97028.72
2022-11-19T12:53:31.965Z,97019.91
2022-11-19T12:56:40.790Z,97020.94
2022-11-19T12:59:51.899Z,97028.31
2022-11-19T13:03:03.853Z,97021.69
2022-11-19T13:06:10.353Z,97012.19
2022-11-19T13:09:19.459Z,97016.66
